sensor_id;sensor_type;location;lat;lon;timestamp;temperature;humidity
20706;DHT22;10514;49.468;11.044;2024-02-16T00:01:02;7.90;98.70
20706;DHT22;10514;49.468;11.044;2024-02-16T00:03:28;7.90;98.60
20706;DHT22;10514;49.468;11.044;2024-02-16T00:05:54;7.80;98.60
20706;DHT22;10514;49.468;11.044;2024-02-16T00:08:20;7.70;98.80
20706;DHT22;10514;49.468;11.044;2024-02-16T00:10:47;7.70;99.10
20706;DHT22;10514;49.468;11.044;2024-02-16T00:13:13;7.70;99.30
20706;DHT22;10514;49.468;11.044;2024-02-16T00:15:39;7.70;99.50
20706;DHT22;10514;49.468;11.044;2024-02-16T00:18:08;7.70;99.70
20706;DHT22;10514;49.468;11.044;2024-02-16T00:20:33;7.70;99.80
20706;DHT22;10514;49.468;11.044;2024-02-16T00:22:59;7.70;99.90
20706;DHT22;10514;49.468;11.044;2024-02-16T00:25:26;7.80;99.90
20706;DHT22;10514;49.468;11.044;2024-02-16T00:27:51;7.70;99.90
20706;DHT22;10514;49.468;11.044;2024-02-16T00:30:19;7.80;99.90
20706;DHT22;10514;49.468;11.044;2024-02-16T00:32:44;7.90;99.90
20706;DHT22;10514;49.468;11.044;2024-02-16T00:35:14;7.90;99.90
20706;DHT22;10514;49.468;11.044;2024-02-16T00:37:41;7.90;99.90
20706;DHT22;10514;49.468;11.044;2024-02-16T00:40:08;8.00;99.90
20706;DHT22;10514;49.468;11.044;2024-02-16T00:42:34;7.90;99.90
20706;DHT22;10514;49.468;11.044;2024-02-16T00:44:59;8.00;99.90
20706;DHT22;10514;49.468;11.044;2024-02-16T00:47:26;8.00;99.70
20706;DHT22;10514;49.468;11.044;2024-02-16T00:49:52;8.00;99.60
20706;DHT22;10514;49.468;11.044;2024-02-16T00:52:18;8.00;99.70
20706;DHT22;10514;49.468;11.044;2024-02-16T00:54:43;8.00;99.70
20706;DHT22;10514;49.468;11.044;2024-02-16T00:57:09;7.90;99.40
20706;DHT22;10514;49.468;11.044;2024-02-16T00:59:34;7.90;99.50
20706;DHT22;10514;49.468;11.044;2024-02-16T01:02:00;7.90;99.60
20706;DHT22;10514;49.468;11.044;2024-02-16T01:04:25;7.90;99.60
20706;DHT22;10514;49.468;11.044;2024-02-16T01:06:51;7.90;99.60
20706;DHT22;10514;49.468;11.044;2024-02-16T01:09:17;7.90;99.50
20706;DHT22;10514;49.468;11.044;2024-02-16T01:11:42;7.90;99.40
20706;DHT22;10514;49.468;11.044;2024-02-16T01:14:08;7.90;99.50
20706;DHT22;10514;49.468;11.044;2024-02-16T01:16:34;7.90;99.40
20706;DHT22;10514;49.468;11.044;2024-02-16T01:19:01;7.90;99.60
20706;DHT22;10514;49.468;11.044;2024-02-16T01:21:26;7.90;99.20
20706;DHT22;10514;49.468;11.044;2024-02-16T01:23:52;7.90;99.30
20706;DHT22;10514;49.468;11.044;2024-02-16T01:26:17;7.80;98.90
20706;DHT22;10514;49.468;11.044;2024-02-16T01:28:43;7.80;99.10
20706;DHT22;10514;49.468;11.044;2024-02-16T01:31:09;7.80;99.20
20706;DHT22;10514;49.468;11.044;2024-02-16T01:33:35;7.70;99.30
20706;DHT22;10514;49.468;11.044;2024-02-16T01:36:02;7.70;99.50
20706;DHT22;10514;49.468;11.044;2024-02-16T01:38:28;7.70;99.60
20706;DHT22;10514;49.468;11.044;2024-02-16T01:40:53;7.70;99.70
20706;DHT22;10514;49.468;11.044;2024-02-16T01:43:20;7.70;99.70
20706;DHT22;10514;49.468;11.044;2024-02-16T01:45:45;7.70;99.70
20706;DHT22;10514;49.468;11.044;2024-02-16T01:48:11;7.70;99.60
20706;DHT22;10514;49.468;11.044;2024-02-16T01:50:37;7.70;99.70
20706;DHT22;10514;49.468;11.044;2024-02-16T01:53:03;7.70;99.70
20706;DHT22;10514;49.468;11.044;2024-02-16T01:55:29;7.70;99.50
20706;DHT22;10514;49.468;11.044;2024-02-16T01:57:55;7.70;99.50
20706;DHT22;10514;49.468;11.044;2024-02-16T02:00:22;7.60;99.60
20706;DHT22;10514;49.468;11.044;2024-02-16T02:02:48;7.60;99.70
20706;DHT22;10514;49.468;11.044;2024-02-16T02:05:14;7.60;99.50
20706;DHT22;10514;49.468;11.044;2024-02-16T02:07:40;7.60;99.60
20706;DHT22;10514;49.468;11.044;2024-02-16T02:10:06;7.60;99.60
20706;DHT22;10514;49.468;11.044;2024-02-16T02:12:32;7.60;99.60
20706;DHT22;10514;49.468;11.044;2024-02-16T02:14:57;7.60;99.80
20706;DHT22;10514;49.468;11.044;2024-02-16T02:17:23;7.60;99.80
20706;DHT22;10514;49.468;11.044;2024-02-16T02:19:48;7.50;99.60
20706;DHT22;10514;49.468;11.044;2024-02-16T02:22:16;7.50;99.50
20706;DHT22;10514;49.468;11.044;2024-02-16T02:24:41;7.50;99.50
20706;DHT22;10514;49.468;11.044;2024-02-16T02:27:07;7.50;99.60
20706;DHT22;10514;49.468;11.044;2024-02-16T02:29:32;7.50;99.90
20706;DHT22;10514;49.468;11.044;2024-02-16T02:31:59;7.50;99.90
20706;DHT22;10514;49.468;11.044;2024-02-16T02:34:24;7.50;99.90
20706;DHT22;10514;49.468;11.044;2024-02-16T02:36:50;7.40;99.90
20706;DHT22;10514;49.468;11.044;2024-02-16T02:39:15;7.50;99.90
20706;DHT22;10514;49.468;11.044;2024-02-16T02:41:41;7.50;99.90
20706;DHT22;10514;49.468;11.044;2024-02-16T02:44:06;7.50;99.90
20706;DHT22;10514;49.468;11.044;2024-02-16T02:46:32;7.50;99.90
20706;DHT22;10514;49.468;11.044;2024-02-16T02:48:57;7.50;99.90
20706;DHT22;10514;49.468;11.044;2024-02-16T02:51:23;7.50;99.90
20706;DHT22;10514;49.468;11.044;2024-02-16T02:53:49;7.50;99.90
20706;DHT22;10514;49.468;11.044;2024-02-16T02:56:14;7.50;99.80
20706;DHT22;10514;49.468;11.044;2024-02-16T02:58:40;7.40;99.80
20706;DHT22;10514;49.468;11.044;2024-02-16T03:01:05;7.30;99.90
20706;DHT22;10514;49.468;11.044;2024-02-16T03:03:33;7.40;99.90
20706;DHT22;10514;49.468;11.044;2024-02-16T03:05:59;7.40;99.90
20706;DHT22;10514;49.468;11.044;2024-02-16T03:08:25;7.50;99.90
20706;DHT22;10514;49.468;11.044;2024-02-16T03:10:50;7.40;99.90
20706;DHT22;10514;49.468;11.044;2024-02-16T03:13:17;7.50;99.90
20706;DHT22;10514;49.468;11.044;2024-02-16T03:15:44;7.50;99.90
20706;DHT22;10514;49.468;11.044;2024-02-16T03:18:10;7.50;99.90
20706;DHT22;10514;49.468;11.044;2024-02-16T03:20:35;7.50;99.90
20706;DHT22;10514;49.468;11.044;2024-02-16T03:23:01;7.50;99.90
20706;DHT22;10514;49.468;11.044;2024-02-16T03:25:30;7.60;99.90
20706;DHT22;10514;49.468;11.044;2024-02-16T03:27:56;7.60;99.90
20706;DHT22;10514;49.468;11.044;2024-02-16T03:30:22;7.60;99.90
20706;DHT22;10514;49.468;11.044;2024-02-16T03:32:48;7.60;99.90
20706;DHT22;10514;49.468;11.044;2024-02-16T03:35:15;7.60;99.90
20706;DHT22;10514;49.468;11.044;2024-02-16T03:37:40;7.70;99.90
20706;DHT22;10514;49.468;11.044;2024-02-16T03:40:07;7.70;99.90
20706;DHT22;10514;49.468;11.044;2024-02-16T03:42:33;7.70;99.90
20706;DHT22;10514;49.468;11.044;2024-02-16T03:44:59;7.70;99.80
20706;DHT22;10514;49.468;11.044;2024-02-16T03:47:25;7.70;99.70
20706;DHT22;10514;49.468;11.044;2024-02-16T03:49:51;7.70;99.60
20706;DHT22;10514;49.468;11.044;2024-02-16T03:52:17;7.70;99.80
20706;DHT22;10514;49.468;11.044;2024-02-16T03:54:43;7.70;99.50
20706;DHT22;10514;49.468;11.044;2024-02-16T03:57:12;7.70;99.60
20706;DHT22;10514;49.468;11.044;2024-02-16T03:59:38;7.70;99.40
20706;DHT22;10514;49.468;11.044;2024-02-16T04:02:04;7.70;99.60
20706;DHT22;10514;49.468;11.044;2024-02-16T04:04:30;7.70;99.60
20706;DHT22;10514;49.468;11.044;2024-02-16T04:06:55;7.70;99.40
20706;DHT22;10514;49.468;11.044;2024-02-16T04:09:21;7.80;99.30
20706;DHT22;10514;49.468;11.044;2024-02-16T04:11:47;7.80;99.00
20706;DHT22;10514;49.468;11.044;2024-02-16T04:14:12;7.80;98.80
20706;DHT22;10514;49.468;11.044;2024-02-16T04:16:38;7.90;98.70
20706;DHT22;10514;49.468;11.044;2024-02-16T04:19:03;7.90;98.60
20706;DHT22;10514;49.468;11.044;2024-02-16T04:21:29;7.90;98.60
20706;DHT22;10514;49.468;11.044;2024-02-16T04:23:55;7.90;98.50
20706;DHT22;10514;49.468;11.044;2024-02-16T04:26:20;7.90;98.50
20706;DHT22;10514;49.468;11.044;2024-02-16T04:28:45;7.90;98.50
20706;DHT22;10514;49.468;11.044;2024-02-16T04:31:11;7.90;98.50
20706;DHT22;10514;49.468;11.044;2024-02-16T04:33:37;7.90;98.40
20706;DHT22;10514;49.468;11.044;2024-02-16T04:36:06;8.00;98.20
20706;DHT22;10514;49.468;11.044;2024-02-16T04:38:32;8.10;97.90
20706;DHT22;10514;49.468;11.044;2024-02-16T04:40:58;8.10;98.10
20706;DHT22;10514;49.468;11.044;2024-02-16T04:43:24;8.10;97.80
20706;DHT22;10514;49.468;11.044;2024-02-16T04:45:49;8.10;97.70
20706;DHT22;10514;49.468;11.044;2024-02-16T04:48:15;8.20;97.70
20706;DHT22;10514;49.468;11.044;2024-02-16T04:50:41;8.20;97.60
20706;DHT22;10514;49.468;11.044;2024-02-16T04:53:07;8.30;97.30
20706;DHT22;10514;49.468;11.044;2024-02-16T04:55:32;8.30;96.90
20706;DHT22;10514;49.468;11.044;2024-02-16T04:57:59;8.40;96.80
20706;DHT22;10514;49.468;11.044;2024-02-16T05:00:25;8.40;96.60
20706;DHT22;10514;49.468;11.044;2024-02-16T05:02:51;8.40;96.50
20706;DHT22;10514;49.468;11.044;2024-02-16T05:05:18;8.50;96.50
20706;DHT22;10514;49.468;11.044;2024-02-16T05:07:48;8.50;96.40
20706;DHT22;10514;49.468;11.044;2024-02-16T05:10:14;8.50;96.40
20706;DHT22;10514;49.468;11.044;2024-02-16T05:12:40;8.50;96.20
20706;DHT22;10514;49.468;11.044;2024-02-16T05:15:06;8.50;96.50
20706;DHT22;10514;49.468;11.044;2024-02-16T05:17:32;8.60;96.00
20706;DHT22;10514;49.468;11.044;2024-02-16T05:19:58;8.60;95.90
20706;DHT22;10514;49.468;11.044;2024-02-16T05:22:23;8.60;95.70
20706;DHT22;10514;49.468;11.044;2024-02-16T05:24:49;8.60;95.90
20706;DHT22;10514;49.468;11.044;2024-02-16T05:27:14;8.50;96.10
20706;DHT22;10514;49.468;11.044;2024-02-16T05:29:40;8.40;96.20
20706;DHT22;10514;49.468;11.044;2024-02-16T05:32:06;8.40;96.40
20706;DHT22;10514;49.468;11.044;2024-02-16T05:34:32;8.40;96.50
20706;DHT22;10514;49.468;11.044;2024-02-16T05:37:06;8.30;96.70
20706;DHT22;10514;49.468;11.044;2024-02-16T05:39:33;8.30;96.80
20706;DHT22;10514;49.468;11.044;2024-02-16T05:42:01;8.30;96.90
20706;DHT22;10514;49.468;11.044;2024-02-16T05:44:27;8.20;97.10
20706;DHT22;10514;49.468;11.044;2024-02-16T05:46:53;8.20;97.30
20706;DHT22;10514;49.468;11.044;2024-02-16T05:49:18;8.20;97.30
20706;DHT22;10514;49.468;11.044;2024-02-16T05:51:45;8.30;97.30
20706;DHT22;10514;49.468;11.044;2024-02-16T05:54:31;8.20;97.30
20706;DHT22;10514;49.468;11.044;2024-02-16T05:56:56;8.20;97.40
20706;DHT22;10514;49.468;11.044;2024-02-16T05:59:22;8.20;97.40
20706;DHT22;10514;49.468;11.044;2024-02-16T06:01:47;8.20;97.40
20706;DHT22;10514;49.468;11.044;2024-02-16T06:04:14;8.20;97.50
20706;DHT22;10514;49.468;11.044;2024-02-16T06:06:39;8.20;97.60
20706;DHT22;10514;49.468;11.044;2024-02-16T06:09:05;8.20;97.50
20706;DHT22;10514;49.468;11.044;2024-02-16T06:11:31;8.10;97.40
20706;DHT22;10514;49.468;11.044;2024-02-16T06:13:57;8.10;97.50
20706;DHT22;10514;49.468;11.044;2024-02-16T06:16:22;8.10;97.60
20706;DHT22;10514;49.468;11.044;2024-02-16T06:18:48;8.00;97.60
20706;DHT22;10514;49.468;11.044;2024-02-16T06:21:14;8.00;97.80
20706;DHT22;10514;49.468;11.044;2024-02-16T06:23:41;8.00;98.00
20706;DHT22;10514;49.468;11.044;2024-02-16T06:26:07;8.00;97.90
20706;DHT22;10514;49.468;11.044;2024-02-16T06:28:32;8.00;98.00
20706;DHT22;10514;49.468;11.044;2024-02-16T06:30:58;7.90;98.00
20706;DHT22;10514;49.468;11.044;2024-02-16T06:33:23;7.90;98.10
20706;DHT22;10514;49.468;11.044;2024-02-16T06:35:49;7.90;98.10
20706;DHT22;10514;49.468;11.044;2024-02-16T06:38:15;7.90;98.10
20706;DHT22;10514;49.468;11.044;2024-02-16T06:40:41;7.90;98.20
20706;DHT22;10514;49.468;11.044;2024-02-16T06:43:06;7.90;98.20
20706;DHT22;10514;49.468;11.044;2024-02-16T06:45:32;7.80;97.90
20706;DHT22;10514;49.468;11.044;2024-02-16T06:47:57;7.80;98.10
20706;DHT22;10514;49.468;11.044;2024-02-16T06:50:23;7.80;98.20
20706;DHT22;10514;49.468;11.044;2024-02-16T06:52:48;7.80;98.30
20706;DHT22;10514;49.468;11.044;2024-02-16T06:55:14;7.80;98.50
20706;DHT22;10514;49.468;11.044;2024-02-16T06:57:39;7.80;98.60
20706;DHT22;10514;49.468;11.044;2024-02-16T07:00:05;7.80;98.60
20706;DHT22;10514;49.468;11.044;2024-02-16T07:02:33;7.80;98.60
20706;DHT22;10514;49.468;11.044;2024-02-16T07:04:59;7.90;98.70
20706;DHT22;10514;49.468;11.044;2024-02-16T07:07:24;7.90;98.80
20706;DHT22;10514;49.468;11.044;2024-02-16T07:09:50;8.00;98.80
20706;DHT22;10514;49.468;11.044;2024-02-16T07:12:15;8.10;98.70
20706;DHT22;10514;49.468;11.044;2024-02-16T07:14:41;8.20;98.40
20706;DHT22;10514;49.468;11.044;2024-02-16T07:17:06;8.30;98.00
20706;DHT22;10514;49.468;11.044;2024-02-16T07:19:35;8.40;98.00
20706;DHT22;10514;49.468;11.044;2024-02-16T07:22:00;8.50;97.60
20706;DHT22;10514;49.468;11.044;2024-02-16T07:24:26;8.60;97.10
20706;DHT22;10514;49.468;11.044;2024-02-16T07:26:52;8.70;96.60
20706;DHT22;10514;49.468;11.044;2024-02-16T07:29:18;8.80;95.60
20706;DHT22;10514;49.468;11.044;2024-02-16T07:31:44;8.90;95.20
20706;DHT22;10514;49.468;11.044;2024-02-16T07:34:10;8.90;95.40
20706;DHT22;10514;49.468;11.044;2024-02-16T07:36:36;9.00;95.00
20706;DHT22;10514;49.468;11.044;2024-02-16T07:39:02;9.10;94.60
20706;DHT22;10514;49.468;11.044;2024-02-16T07:41:30;9.30;94.10
20706;DHT22;10514;49.468;11.044;2024-02-16T07:43:55;9.40;93.80
20706;DHT22;10514;49.468;11.044;2024-02-16T07:46:21;9.60;93.10
20706;DHT22;10514;49.468;11.044;2024-02-16T07:48:46;9.80;93.10
20706;DHT22;10514;49.468;11.044;2024-02-16T07:51:12;10.10;91.60
20706;DHT22;10514;49.468;11.044;2024-02-16T07:53:37;10.50;90.40
20706;DHT22;10514;49.468;11.044;2024-02-16T07:56:06;10.80;89.10
20706;DHT22;10514;49.468;11.044;2024-02-16T07:58:32;10.90;85.90
20706;DHT22;10514;49.468;11.044;2024-02-16T08:00:57;11.10;84.30
20706;DHT22;10514;49.468;11.044;2024-02-16T08:03:23;11.30;85.20
20706;DHT22;10514;49.468;11.044;2024-02-16T08:05:48;11.60;81.90
20706;DHT22;10514;49.468;11.044;2024-02-16T08:08:15;11.90;81.20
20706;DHT22;10514;49.468;11.044;2024-02-16T08:10:40;11.90;79.50
20706;DHT22;10514;49.468;11.044;2024-02-16T08:13:06;11.90;80.10
20706;DHT22;10514;49.468;11.044;2024-02-16T08:15:32;12.00;79.90
20706;DHT22;10514;49.468;11.044;2024-02-16T08:17:57;12.10;80.00
20706;DHT22;10514;49.468;11.044;2024-02-16T08:20:23;12.00;79.50
20706;DHT22;10514;49.468;11.044;2024-02-16T08:22:49;11.90;78.90
20706;DHT22;10514;49.468;11.044;2024-02-16T08:25:14;11.80;78.90
20706;DHT22;10514;49.468;11.044;2024-02-16T08:27:40;11.80;79.00
20706;DHT22;10514;49.468;11.044;2024-02-16T08:30:06;11.70;79.00
20706;DHT22;10514;49.468;11.044;2024-02-16T08:32:34;11.70;79.80
20706;DHT22;10514;49.468;11.044;2024-02-16T08:35:00;11.70;79.90
20706;DHT22;10514;49.468;11.044;2024-02-16T08:37:25;11.70;79.10
20706;DHT22;10514;49.468;11.044;2024-02-16T08:39:52;11.60;79.70
20706;DHT22;10514;49.468;11.044;2024-02-16T08:42:18;11.60;79.50
20706;DHT22;10514;49.468;11.044;2024-02-16T08:44:43;11.60;79.90
20706;DHT22;10514;49.468;11.044;2024-02-16T08:47:09;11.50;80.20
20706;DHT22;10514;49.468;11.044;2024-02-16T08:49:35;11.50;80.20
20706;DHT22;10514;49.468;11.044;2024-02-16T08:52:00;11.50;79.70
20706;DHT22;10514;49.468;11.044;2024-02-16T08:54:26;11.50;80.40
20706;DHT22;10514;49.468;11.044;2024-02-16T08:56:53;11.40;80.40
20706;DHT22;10514;49.468;11.044;2024-02-16T08:59:19;11.40;80.70
20706;DHT22;10514;49.468;11.044;2024-02-16T09:01:45;11.40;81.10
20706;DHT22;10514;49.468;11.044;2024-02-16T09:04:10;11.50;80.40
20706;DHT22;10514;49.468;11.044;2024-02-16T09:06:36;11.60;80.70
20706;DHT22;10514;49.468;11.044;2024-02-16T09:09:03;11.70;80.80
20706;DHT22;10514;49.468;11.044;2024-02-16T09:11:28;11.80;80.00
20706;DHT22;10514;49.468;11.044;2024-02-16T09:13:54;11.90;80.10
20706;DHT22;10514;49.468;11.044;2024-02-16T09:16:19;12.10;78.70
20706;DHT22;10514;49.468;11.044;2024-02-16T09:18:45;12.20;77.40
20706;DHT22;10514;49.468;11.044;2024-02-16T09:21:11;12.30;77.50
20706;DHT22;10514;49.468;11.044;2024-02-16T09:23:36;12.40;77.30
20706;DHT22;10514;49.468;11.044;2024-02-16T09:26:02;12.60;75.70
20706;DHT22;10514;49.468;11.044;2024-02-16T09:28:29;12.90;76.30
20706;DHT22;10514;49.468;11.044;2024-02-16T09:30:55;13.60;75.90
20706;DHT22;10514;49.468;11.044;2024-02-16T09:33:21;14.60;72.60
20706;DHT22;10514;49.468;11.044;2024-02-16T09:35:49;15.60;68.10
20706;DHT22;10514;49.468;11.044;2024-02-16T09:38:15;16.20;63.10
20706;DHT22;10514;49.468;11.044;2024-02-16T09:40:42;16.40;62.50
20706;DHT22;10514;49.468;11.044;2024-02-16T09:43:07;16.90;61.50
20706;DHT22;10514;49.468;11.044;2024-02-16T09:45:33;16.70;60.80
20706;DHT22;10514;49.468;11.044;2024-02-16T09:47:59;16.70;60.90
20706;DHT22;10514;49.468;11.044;2024-02-16T09:50:25;16.60;60.80
20706;DHT22;10514;49.468;11.044;2024-02-16T09:52:52;16.20;61.60
20706;DHT22;10514;49.468;11.044;2024-02-16T09:55:19;15.70;62.70
20706;DHT22;10514;49.468;11.044;2024-02-16T09:57:45;15.20;65.10
20706;DHT22;10514;49.468;11.044;2024-02-16T10:00:11;15.00;66.40
20706;DHT22;10514;49.468;11.044;2024-02-16T10:02:44;14.60;67.40
20706;DHT22;10514;49.468;11.044;2024-02-16T10:05:13;14.30;68.10
20706;DHT22;10514;49.468;11.044;2024-02-16T10:07:40;14.10;68.90
20706;DHT22;10514;49.468;11.044;2024-02-16T10:10:06;13.80;69.80
20706;DHT22;10514;49.468;11.044;2024-02-16T10:12:32;13.60;70.60
20706;DHT22;10514;49.468;11.044;2024-02-16T10:14:57;13.50;71.10
20706;DHT22;10514;49.468;11.044;2024-02-16T10:17:25;13.40;72.00
20706;DHT22;10514;49.468;11.044;2024-02-16T10:19:59;13.30;73.00
20706;DHT22;10514;49.468;11.044;2024-02-16T10:22:28;13.30;72.50
20706;DHT22;10514;49.468;11.044;2024-02-16T10:24:54;13.30;72.50
20706;DHT22;10514;49.468;11.044;2024-02-16T10:27:19;13.30;72.60
20706;DHT22;10514;49.468;11.044;2024-02-16T10:29:47;13.20;72.70
20706;DHT22;10514;49.468;11.044;2024-02-16T10:32:15;13.20;73.50
20706;DHT22;10514;49.468;11.044;2024-02-16T10:34:41;13.30;72.90
20706;DHT22;10514;49.468;11.044;2024-02-16T10:37:08;13.20;72.70
20706;DHT22;10514;49.468;11.044;2024-02-16T10:39:35;13.20;71.80
20706;DHT22;10514;49.468;11.044;2024-02-16T10:42:01;13.10;72.80
20706;DHT22;10514;49.468;11.044;2024-02-16T10:44:30;13.10;73.30
20706;DHT22;10514;49.468;11.044;2024-02-16T10:46:55;13.10;74.10
20706;DHT22;10514;49.468;11.044;2024-02-16T10:49:23;13.20;74.40
20706;DHT22;10514;49.468;11.044;2024-02-16T10:51:52;13.20;74.60
20706;DHT22;10514;49.468;11.044;2024-02-16T10:54:23;13.30;74.40
20706;DHT22;10514;49.468;11.044;2024-02-16T10:56:53;13.40;73.90
20706;DHT22;10514;49.468;11.044;2024-02-16T10:59:19;13.40;73.60
20706;DHT22;10514;49.468;11.044;2024-02-16T11:01:45;13.40;73.50
20706;DHT22;10514;49.468;11.044;2024-02-16T11:04:15;13.50;73.40
20706;DHT22;10514;49.468;11.044;2024-02-16T11:06:45;13.40;73.60
20706;DHT22;10514;49.468;11.044;2024-02-16T11:09:10;13.40;74.00
20706;DHT22;10514;49.468;11.044;2024-02-16T11:11:36;13.40;74.40
20706;DHT22;10514;49.468;11.044;2024-02-16T11:14:02;13.40;75.30
20706;DHT22;10514;49.468;11.044;2024-02-16T11:16:29;14.40;75.00
20706;DHT22;10514;49.468;11.044;2024-02-16T11:18:56;13.30;74.30
20706;DHT22;10514;49.468;11.044;2024-02-16T11:21:22;13.30;74.40
20706;DHT22;10514;49.468;11.044;2024-02-16T11:23:47;13.30;74.70
20706;DHT22;10514;49.468;11.044;2024-02-16T11:26:14;13.30;75.00
20706;DHT22;10514;49.468;11.044;2024-02-16T11:28:41;13.30;75.10
20706;DHT22;10514;49.468;11.044;2024-02-16T11:31:07;13.30;75.20
20706;DHT22;10514;49.468;11.044;2024-02-16T11:33:33;13.30;74.40
20706;DHT22;10514;49.468;11.044;2024-02-16T11:36:05;13.30;75.00
20706;DHT22;10514;49.468;11.044;2024-02-16T11:38:33;13.30;74.00
20706;DHT22;10514;49.468;11.044;2024-02-16T11:41:00;13.30;73.70
20706;DHT22;10514;49.468;11.044;2024-02-16T11:43:26;13.30;74.20
20706;DHT22;10514;49.468;11.044;2024-02-16T11:45:52;13.30;74.90
20706;DHT22;10514;49.468;11.044;2024-02-16T11:48:26;13.30;75.00
20706;DHT22;10514;49.468;11.044;2024-02-16T11:51:01;13.40;75.00
20706;DHT22;10514;49.468;11.044;2024-02-16T11:53:31;13.40;74.90
20706;DHT22;10514;49.468;11.044;2024-02-16T11:55:57;13.40;74.60
20706;DHT22;10514;49.468;11.044;2024-02-16T11:58:23;13.50;74.60
20706;DHT22;10514;49.468;11.044;2024-02-16T12:00:50;13.50;74.90
20706;DHT22;10514;49.468;11.044;2024-02-16T12:03:25;13.60;77.70
20706;DHT22;10514;49.468;11.044;2024-02-16T12:05:57;13.70;79.30
20706;DHT22;10514;49.468;11.044;2024-02-16T12:08:23;13.70;78.40
20706;DHT22;10514;49.468;11.044;2024-02-16T12:10:50;13.80;77.60
20706;DHT22;10514;49.468;11.044;2024-02-16T12:13:20;13.90;75.90
20706;DHT22;10514;49.468;11.044;2024-02-16T12:15:46;13.90;75.40
20706;DHT22;10514;49.468;11.044;2024-02-16T12:18:26;13.90;73.80
20706;DHT22;10514;49.468;11.044;2024-02-16T12:23:27;13.90;73.00
20706;DHT22;10514;49.468;11.044;2024-02-16T12:25:53;13.90;72.60
20706;DHT22;10514;49.468;11.044;2024-02-16T12:28:23;13.90;72.50
20706;DHT22;10514;49.468;11.044;2024-02-16T12:30:49;13.90;72.40
20706;DHT22;10514;49.468;11.044;2024-02-16T12:33:15;13.50;72.80
20706;DHT22;10514;49.468;11.044;2024-02-16T12:35:40;14.00;73.30
20706;DHT22;10514;49.468;11.044;2024-02-16T12:38:06;14.00;73.20
20706;DHT22;10514;49.468;11.044;2024-02-16T12:40:31;14.10;72.90
20706;DHT22;10514;49.468;11.044;2024-02-16T12:42:57;14.20;72.90
20706;DHT22;10514;49.468;11.044;2024-02-16T12:45:22;14.20;72.20
20706;DHT22;10514;49.468;11.044;2024-02-16T12:47:49;14.30;72.40
20706;DHT22;10514;49.468;11.044;2024-02-16T12:50:15;14.40;72.00
20706;DHT22;10514;49.468;11.044;2024-02-16T12:52:40;14.40;71.80
20706;DHT22;10514;49.468;11.044;2024-02-16T12:55:07;14.40;71.90
20706;DHT22;10514;49.468;11.044;2024-02-16T12:57:35;14.40;71.90
20706;DHT22;10514;49.468;11.044;2024-02-16T13:00:00;14.40;71.80
20706;DHT22;10514;49.468;11.044;2024-02-16T13:02:26;14.30;72.10
20706;DHT22;10514;49.468;11.044;2024-02-16T13:04:52;14.30;72.40
20706;DHT22;10514;49.468;11.044;2024-02-16T13:07:19;14.30;72.00
20706;DHT22;10514;49.468;11.044;2024-02-16T13:09:45;14.20;72.60
20706;DHT22;10514;49.468;11.044;2024-02-16T13:12:10;14.30;72.40
20706;DHT22;10514;49.468;11.044;2024-02-16T13:14:36;14.30;71.90
20706;DHT22;10514;49.468;11.044;2024-02-16T13:17:02;14.30;71.90
20706;DHT22;10514;49.468;11.044;2024-02-16T13:19:27;14.40;71.40
20706;DHT22;10514;49.468;11.044;2024-02-16T13:21:53;14.50;71.20
20706;DHT22;10514;49.468;11.044;2024-02-16T13:24:19;14.60;71.20
20706;DHT22;10514;49.468;11.044;2024-02-16T13:26:44;14.80;71.30
20706;DHT22;10514;49.468;11.044;2024-02-16T13:29:10;14.90;69.40
20706;DHT22;10514;49.468;11.044;2024-02-16T13:31:37;14.90;68.90
20706;DHT22;10514;49.468;11.044;2024-02-16T13:34:02;15.10;69.30
20706;DHT22;10514;49.468;11.044;2024-02-16T13:36:28;15.00;68.90
20706;DHT22;10514;49.468;11.044;2024-02-16T13:38:53;15.00;69.30
20706;DHT22;10514;49.468;11.044;2024-02-16T13:41:19;15.00;69.50
20706;DHT22;10514;49.468;11.044;2024-02-16T13:43:45;15.00;68.60
20706;DHT22;10514;49.468;11.044;2024-02-16T13:46:10;14.90;69.20
20706;DHT22;10514;49.468;11.044;2024-02-16T13:48:36;15.00;69.80
20706;DHT22;10514;49.468;11.044;2024-02-16T13:51:03;15.00;70.00
20706;DHT22;10514;49.468;11.044;2024-02-16T13:53:30;15.10;70.10
20706;DHT22;10514;49.468;11.044;2024-02-16T13:55:57;15.10;69.80
20706;DHT22;10514;49.468;11.044;2024-02-16T13:58:26;15.10;69.50
20706;DHT22;10514;49.468;11.044;2024-02-16T14:00:52;15.20;69.40
20706;DHT22;10514;49.468;11.044;2024-02-16T14:03:18;15.20;69.00
20706;DHT22;10514;49.468;11.044;2024-02-16T14:05:44;15.20;69.10
20706;DHT22;10514;49.468;11.044;2024-02-16T14:08:11;15.20;69.40
20706;DHT22;10514;49.468;11.044;2024-02-16T14:10:38;15.20;69.10
20706;DHT22;10514;49.468;11.044;2024-02-16T14:13:03;15.20;69.30
20706;DHT22;10514;49.468;11.044;2024-02-16T14:15:29;15.10;69.30
20706;DHT22;10514;49.468;11.044;2024-02-16T14:17:54;15.10;69.70
20706;DHT22;10514;49.468;11.044;2024-02-16T14:20:20;15.10;69.60
20706;DHT22;10514;49.468;11.044;2024-02-16T14:22:47;15.10;69.80
20706;DHT22;10514;49.468;11.044;2024-02-16T14:25:13;15.00;69.20
20706;DHT22;10514;49.468;11.044;2024-02-16T14:27:39;15.00;69.40
20706;DHT22;10514;49.468;11.044;2024-02-16T14:30:05;14.80;69.80
20706;DHT22;10514;49.468;11.044;2024-02-16T14:32:31;14.70;70.40
20706;DHT22;10514;49.468;11.044;2024-02-16T14:34:57;14.70;70.20
20706;DHT22;10514;49.468;11.044;2024-02-16T14:37:22;14.70;70.70
20706;DHT22;10514;49.468;11.044;2024-02-16T14:39:48;14.60;71.20
20706;DHT22;10514;49.468;11.044;2024-02-16T14:42:14;14.50;71.60
20706;DHT22;10514;49.468;11.044;2024-02-16T14:44:39;14.50;72.30
20706;DHT22;10514;49.468;11.044;2024-02-16T14:47:05;14.40;72.80
20706;DHT22;10514;49.468;11.044;2024-02-16T14:49:30;14.40;73.00
20706;DHT22;10514;49.468;11.044;2024-02-16T14:51:57;14.40;73.30
20706;DHT22;10514;49.468;11.044;2024-02-16T14:54:23;14.30;73.60
20706;DHT22;10514;49.468;11.044;2024-02-16T14:56:52;14.20;73.90
20706;DHT22;10514;49.468;11.044;2024-02-16T14:59:18;14.20;73.80
20706;DHT22;10514;49.468;11.044;2024-02-16T15:02:15;14.10;74.00
20706;DHT22;10514;49.468;11.044;2024-02-16T15:04:40;14.00;74.70
20706;DHT22;10514;49.468;11.044;2024-02-16T15:07:06;13.90;75.10
20706;DHT22;10514;49.468;11.044;2024-02-16T15:09:31;13.80;75.50
20706;DHT22;10514;49.468;11.044;2024-02-16T15:11:57;13.80;75.50
20706;DHT22;10514;49.468;11.044;2024-02-16T15:14:22;13.70;75.60
20706;DHT22;10514;49.468;11.044;2024-02-16T15:16:48;13.70;76.00
20706;DHT22;10514;49.468;11.044;2024-02-16T15:19:13;13.60;76.40